Time;durP1;ratioP1;P1;durP2;ratioP2;P2;SDS_P1;SDS_P2;PMS_P1;PMS_P2;Temp;Humidity;BMP_temperature;BMP_pressure;BME280_temperature;BME280_humidity;BME280_pressure;Samples;Min_cycle;Max_cycle;Signal;HPM_P1;HPM_P2
2023/05/20 00:00:14;;;;;;;9.10;3.72;;;12.20;99.90;;;;;;5015747;28;20045;-76
2023/05/20 00:02:39;;;;;;;9.95;4.07;;;12.10;99.90;;;;;;4996380;28;20037;-76
2023/05/20 00:05:05;;;;;;;8.10;4.15;;;12.10;99.90;;;;;;5014855;28;20124;-76
2023/05/20 00:07:31;;;;;;;7.32;3.80;;;12.10;99.90;;;;;;5013924;28;20084;-77
2023/05/20 00:09:56;;;;;;;8.57;4.00;;;12.10;99.90;;;;;;5014099;28;20041;-76
2023/05/20 00:12:22;;;;;;;10.15;4.18;;;12.10;99.90;;;;;;4994605;28;20081;-76
2023/05/20 00:14:47;;;;;;;10.07;3.67;;;12.00;99.90;;;;;;5013068;28;20034;-76
2023/05/20 00:17:13;;;;;;;10.20;4.20;;;12.00;99.90;;;;;;5013488;28;20519;-78
2023/05/20 00:19:38;;;;;;;10.40;4.05;;;12.00;99.90;;;;;;5014393;28;20034;-76
2023/05/20 00:22:04;;;;;;;9.13;3.85;;;11.90;99.90;;;;;;5013218;28;20037;-76
2023/05/20 00:24:30;;;;;;;9.35;4.35;;;11.90;99.90;;;;;;5014136;28;20044;-76
2023/05/20 00:26:55;;;;;;;8.15;4.25;;;11.90;99.90;;;;;;5013020;28;20037;-76
2023/05/20 00:29:21;;;;;;;10.55;4.15;;;11.90;99.90;;;;;;5015127;28;20041;-76
2023/05/20 00:31:47;;;;;;;9.00;4.35;;;11.80;99.90;;;;;;5011726;28;20042;-76
2023/05/20 00:34:12;;;;;;;12.52;3.75;;;11.80;99.90;;;;;;5014965;28;20048;-76
2023/05/20 00:36:38;;;;;;;8.90;4.20;;;11.80;99.90;;;;;;5014168;28;20514;-75
2023/05/20 00:39:03;;;;;;;10.27;4.32;;;11.80;99.90;;;;;;5014584;28;20045;-76
2023/05/20 00:41:29;;;;;;;6.63;3.78;;;11.70;99.90;;;;;;5015739;28;20517;-75
2023/05/20 00:43:55;;;;;;;8.52;3.90;;;11.70;99.90;;;;;;5015958;28;20037;-76
2023/05/20 00:46:22;;;;;;;7.40;4.05;;;11.70;99.90;;;;;;5014433;28;20041;-76
2023/05/20 00:48:49;;;;;;;7.55;3.92;;;11.60;99.90;;;;;;5015687;28;20045;-75
2023/05/20 00:51:15;;;;;;;6.88;3.75;;;11.60;99.90;;;;;;5014407;28;20053;-75
2023/05/20 00:53:41;;;;;;;5.10;3.40;;;11.60;99.90;;;;;;5015664;28;20045;-75
2023/05/20 00:56:07;;;;;;;7.45;3.70;;;11.50;99.90;;;;;;5015506;28;20046;-75
2023/05/20 00:58:35;;;;;;;6.45;3.88;;;11.50;99.90;;;;;;5015368;28;20088;-75
2023/05/20 01:01:01;;;;;;;7.07;4.03;;;11.40;99.90;;;;;;5015817;28;20405;-75
2023/05/20 01:03:28;;;;;;;8.65;3.72;;;11.30;99.90;;;;;;4993552;28;20046;-76
2023/05/20 01:05:53;;;;;;;6.57;3.67;;;11.20;99.90;;;;;;5015367;28;20068;-75
2023/05/20 01:08:20;;;;;;;6.20;3.78;;;11.10;99.90;;;;;;5015078;28;20065;-75
2023/05/20 01:10:48;;;;;;;8.45;3.95;;;11.10;99.90;;;;;;4999019;28;20030;-75
2023/05/20 01:13:19;;;;;;;7.78;4.05;;;11.20;99.90;;;;;;4998996;28;20045;-76
2023/05/20 01:15:47;;;;;;;7.68;3.63;;;11.00;99.90;;;;;;5015338;28;20041;-76
2023/05/20 01:18:17;;;;;;;6.53;3.75;;;11.00;99.90;;;;;;5015030;28;20069;-76
2023/05/20 01:20:46;;;;;;;6.95;3.50;;;11.00;99.90;;;;;;5014328;28;20128;-76
2023/05/20 01:23:12;;;;;;;7.97;3.85;;;10.90;99.90;;;;;;5015390;28;20068;-75
2023/05/20 01:25:37;;;;;;;8.70;3.60;;;10.90;99.90;;;;;;5015107;28;20037;-76
2023/05/20 01:28:03;;;;;;;8.85;4.00;;;10.90;99.90;;;;;;5015038;28;20124;-76
2023/05/20 01:30:34;;;;;;;7.25;3.60;;;10.80;99.90;;;;;;5014849;28;21523;-76
2023/05/20 01:33:10;;;;;;;6.60;3.90;;;10.80;99.90;;;;;;5010375;28;20041;-75
2023/05/20 01:35:38;;;;;;;7.15;3.42;;;10.80;99.90;;;;;;5014266;28;20140;-76
2023/05/20 01:38:05;;;;;;;7.70;3.60;;;10.70;99.90;;;;;;5014818;28;20033;-76
2023/05/20 01:40:32;;;;;;;7.82;3.55;;;10.70;99.90;;;;;;5014698;28;20090;-76
2023/05/20 01:42:58;;;;;;;6.05;3.45;;;10.70;99.90;;;;;;5014657;28;20037;-76
2023/05/20 01:45:24;;;;;;;19.45;3.58;;;10.70;99.90;;;;;;5011677;28;20060;-77
2023/05/20 01:47:50;;;;;;;6.78;3.47;;;10.60;99.90;;;;;;5012687;28;20509;-77
2023/05/20 01:50:16;;;;;;;4.70;3.45;;;10.60;99.90;;;;;;5011632;28;20655;-77
2023/05/20 01:52:41;;;;;;;6.38;3.47;;;10.60;99.90;;;;;;5013327;28;20037;-76
2023/05/20 01:55:07;;;;;;;9.02;3.47;;;10.60;99.90;;;;;;5012145;28;20041;-77
2023/05/20 01:57:33;;;;;;;6.85;3.42;;;10.50;99.90;;;;;;5009659;28;20113;-78
2023/05/20 01:59:58;;;;;;;6.00;3.33;;;10.50;99.90;;;;;;5014590;28;20125;-76
2023/05/20 02:02:24;;;;;;;7.78;3.50;;;10.50;99.90;;;;;;5014536;28;20124;-76
2023/05/20 02:04:50;;;;;;;6.68;3.75;;;10.50;99.90;;;;;;5014447;28;20045;-76
2023/05/20 02:07:17;;;;;;;7.38;3.50;;;10.40;99.90;;;;;;4998372;28;20052;-76
2023/05/20 02:09:43;;;;;;;6.03;3.25;;;10.40;99.90;;;;;;4997910;28;20072;-76
2023/05/20 02:12:15;;;;;;;6.63;3.53;;;10.40;99.90;;;;;;5014581;28;20046;-77
2023/05/20 02:14:41;;;;;;;5.28;3.35;;;10.40;99.90;;;;;;5014369;28;20501;-76
2023/05/20 02:17:06;;;;;;;6.63;3.60;;;10.40;99.90;;;;;;4997921;28;20077;-76
2023/05/20 02:19:32;;;;;;;5.78;3.10;;;10.40;99.90;;;;;;5014200;28;20477;-76
2023/05/20 02:21:57;;;;;;;6.20;3.58;;;10.30;99.90;;;;;;5014209;28;20103;-76
2023/05/20 02:24:23;;;;;;;8.13;3.65;;;10.30;99.90;;;;;;5014173;28;20055;-76
2023/05/20 02:26:50;;;;;;;7.28;3.75;;;10.30;99.90;;;;;;5014177;28;20583;-75
2023/05/20 02:29:15;;;;;;;6.30;3.10;;;10.30;99.90;;;;;;5013959;28;20049;-77
2023/05/20 02:31:41;;;;;;;5.35;3.40;;;10.30;99.90;;;;;;5013956;28;20042;-76
2023/05/20 02:34:07;;;;;;;8.32;4.15;;;10.20;99.90;;;;;;5013094;28;20481;-76
2023/05/20 02:36:32;;;;;;;8.07;4.13;;;10.20;99.90;;;;;;5013559;28;20086;-76
2023/05/20 02:38:59;;;;;;;7.63;3.40;;;10.20;99.90;;;;;;5013798;28;20037;-77
2023/05/20 02:41:25;;;;;;;6.20;3.78;;;10.20;99.90;;;;;;5010827;28;20417;-76
2023/05/20 02:43:50;;;;;;;5.68;3.92;;;10.20;99.90;;;;;;5011952;28;20145;-76
2023/05/20 02:46:18;;;;;;;7.30;3.80;;;10.20;99.90;;;;;;5011176;28;20091;-75
2023/05/20 02:48:44;;;;;;;8.02;4.00;;;10.10;99.90;;;;;;5012990;28;20088;-77
2023/05/20 02:51:10;;;;;;;6.55;3.70;;;10.20;99.90;;;;;;4997072;28;20095;-76
2023/05/20 02:53:35;;;;;;;7.38;3.67;;;10.10;99.90;;;;;;5013618;28;20064;-75
2023/05/20 02:56:03;;;;;;;5.60;3.58;;;10.20;99.90;;;;;;5013684;28;20148;-75
2023/05/20 02:58:28;;;;;;;7.10;3.75;;;10.10;99.90;;;;;;5013456;28;20571;-76
2023/05/20 03:00:56;;;;;;;6.65;3.50;;;10.10;99.90;;;;;;5013789;28;20045;-76
2023/05/20 03:03:22;;;;;;;6.72;4.15;;;10.10;99.90;;;;;;5013829;28;20120;-76
2023/05/20 03:05:48;;;;;;;5.40;3.50;;;10.10;99.90;;;;;;5013490;28;20069;-76
2023/05/20 03:08:14;;;;;;;5.45;3.50;;;10.10;99.90;;;;;;5012980;28;20051;-76
2023/05/20 03:10:40;;;;;;;5.25;3.53;;;10.10;99.90;;;;;;5012794;28;20124;-75
2023/05/20 03:13:08;;;;;;;11.88;3.50;;;10.10;99.90;;;;;;4996976;28;20336;-76
2023/05/20 03:15:34;;;;;;;6.22;3.42;;;10.00;99.90;;;;;;5013784;28;20107;-76
2023/05/20 03:18:00;;;;;;;4.20;3.22;;;10.10;99.90;;;;;;5011826;28;20041;-76
2023/05/20 03:20:27;;;;;;;7.68;3.67;;;10.10;99.90;;;;;;5003275;28;20029;-75
2023/05/20 03:22:53;;;;;;;6.65;3.60;;;10.10;99.90;;;;;;5005565;28;20068;-76
2023/05/20 03:25:20;;;;;;;5.57;3.58;;;10.20;99.90;;;;;;5012314;28;20045;-76
2023/05/20 03:27:45;;;;;;;6.13;3.40;;;10.10;99.90;;;;;;5011455;28;20095;-76
2023/05/20 03:30:11;;;;;;;7.13;3.45;;;10.20;99.90;;;;;;5009675;28;20439;-76
2023/05/20 03:32:37;;;;;;;6.55;3.72;;;10.20;99.90;;;;;;5010261;28;20193;-76
2023/05/20 03:35:02;;;;;;;8.25;3.90;;;10.10;99.90;;;;;;5008746;28;20037;-76
2023/05/20 03:37:28;;;;;;;7.03;3.63;;;10.10;99.90;;;;;;5008389;28;20405;-76
2023/05/20 03:39:53;;;;;;;4.95;3.08;;;10.10;99.90;;;;;;5018245;28;20034;-76
2023/05/20 03:42:19;;;;;;;6.60;3.45;;;10.10;99.90;;;;;;5009365;28;20045;-76
2023/05/20 03:44:44;;;;;;;5.80;3.40;;;10.10;99.90;;;;;;5008298;28;20432;-76
2023/05/20 03:47:10;;;;;;;6.78;3.63;;;10.10;99.90;;;;;;5009133;28;20042;-75
2023/05/20 03:49:35;;;;;;;7.07;3.20;;;10.00;99.90;;;;;;5011054;28;20048;-76
2023/05/20 03:52:02;;;;;;;5.15;3.25;;;10.10;99.90;;;;;;5009655;28;20096;-76
2023/05/20 03:54:30;;;;;;;5.60;3.33;;;10.00;99.90;;;;;;5008839;28;20045;-75
2023/05/20 03:56:55;;;;;;;7.28;3.20;;;10.00;99.90;;;;;;5006008;28;20100;-75
2023/05/20 03:59:21;;;;;;;4.95;3.10;;;10.00;99.90;;;;;;4993222;28;20034;-76
2023/05/20 04:01:47;;;;;;;7.88;3.20;;;10.00;99.90;;;;;;5009083;28;20037;-76
2023/05/20 04:04:12;;;;;;;6.85;3.17;;;10.10;99.90;;;;;;5003153;28;20099;-75
2023/05/20 04:06:39;;;;;;;5.25;3.33;;;10.10;99.90;;;;;;5009992;28;20124;-75
2023/05/20 04:09:06;;;;;;;6.63;3.25;;;10.10;99.90;;;;;;4992649;28;20144;-76
2023/05/20 04:11:31;;;;;;;4.93;3.10;;;10.20;99.90;;;;;;5002716;28;20062;-76
2023/05/20 04:13:59;;;;;;;4.88;2.90;;;10.20;99.90;;;;;;5012723;28;20408;-75
2023/05/20 04:16:24;;;;;;;5.95;3.30;;;10.20;99.90;;;;;;5011258;28;20045;-76
2023/05/20 04:18:51;;;;;;;4.32;2.78;;;10.30;99.90;;;;;;5010741;28;20153;-75
2023/05/20 04:21:18;;;;;;;5.75;3.03;;;10.40;99.90;;;;;;5014932;28;20041;-76
2023/05/20 04:23:43;;;;;;;4.40;2.90;;;10.50;99.90;;;;;;5016384;28;20451;-75
2023/05/20 04:26:09;;;;;;;6.30;2.63;;;10.50;99.90;;;;;;5016420;28;20042;-76
2023/05/20 04:28:36;;;;;;;4.28;2.42;;;10.50;99.90;;;;;;5016485;28;20037;-75
2023/05/20 04:31:05;;;;;;;6.45;2.83;;;10.60;99.90;;;;;;5016407;28;20042;-76
2023/05/20 04:33:31;;;;;;;3.25;2.58;;;10.60;99.90;;;;;;5016360;28;20417;-75
2023/05/20 04:35:58;;;;;;;5.13;2.75;;;10.70;99.90;;;;;;5033860;28;20413;-75
2023/05/20 04:38:28;;;;;;;5.00;2.70;;;10.80;99.90;;;;;;5016008;28;20049;-75
2023/05/20 04:40:56;;;;;;;5.35;2.50;;;10.80;99.90;;;;;;5016205;28;20120;-76
2023/05/20 04:43:28;;;;;;;3.92;2.70;;;10.90;99.90;;;;;;5016325;28;20088;-76
2023/05/20 04:45:58;;;;;;;3.47;2.47;;;10.90;99.90;;;;;;5016097;28;20045;-76
2023/05/20 04:48:24;;;;;;;4.55;2.88;;;11.00;99.90;;;;;;5014794;28;20123;-75
2023/05/20 04:50:53;;;;;;;7.18;2.47;;;11.00;99.90;;;;;;5014038;28;20044;-76
2023/05/20 04:53:20;;;;;;;4.40;2.55;;;11.10;99.90;;;;;;5004924;28;20061;-75
2023/05/20 04:55:47;;;;;;;5.53;2.60;;;11.20;99.90;;;;;;5006664;28;20045;-76
2023/05/20 04:58:16;;;;;;;4.95;2.55;;;11.20;99.90;;;;;;5006306;28;20030;-75
2023/05/20 05:00:45;;;;;;;4.47;2.38;;;11.30;99.90;;;;;;4990113;28;20488;-76
2023/05/20 05:03:11;;;;;;;3.25;1.95;;;11.30;99.90;;;;;;5012484;28;20041;-76
2023/05/20 05:05:38;;;;;;;4.65;2.22;;;11.30;99.90;;;;;;5012163;28;20041;-76
2023/05/20 05:08:07;;;;;;;4.78;2.20;;;11.30;99.90;;;;;;5012021;28;20041;-76
2023/05/20 05:10:34;;;;;;;4.50;2.35;;;11.40;99.90;;;;;;4986856;28;20472;-76
2023/05/20 05:13:00;;;;;;;4.35;2.15;;;11.40;99.90;;;;;;5015183;28;20402;-75
2023/05/20 05:15:27;;;;;;;4.20;1.98;;;11.40;99.90;;;;;;4986534;28;20124;-76
2023/05/20 05:17:52;;;;;;;4.57;2.25;;;11.40;99.90;;;;;;5015097;28;20037;-76
2023/05/20 05:20:18;;;;;;;5.72;2.10;;;11.40;99.90;;;;;;5010826;28;20055;-76
2023/05/20 05:22:44;;;;;;;3.00;1.90;;;11.50;99.90;;;;;;5010500;28;20045;-75
2023/05/20 05:25:10;;;;;;;5.07;2.13;;;11.50;99.90;;;;;;5012960;28;20038;-75
2023/05/20 05:27:36;;;;;;;3.72;1.90;;;11.60;99.90;;;;;;5011915;28;20052;-75
2023/05/20 05:30:03;;;;;;;4.53;1.95;;;11.60;99.90;;;;;;5013993;28;20409;-76
2023/05/20 05:32:29;;;;;;;5.53;2.00;;;11.60;99.90;;;;;;5010820;28;20065;-75
2023/05/20 05:34:54;;;;;;;3.67;1.95;;;11.70;99.90;;;;;;5015133;28;20061;-75
2023/05/20 05:37:20;;;;;;;5.57;1.90;;;11.80;99.90;;;;;;4998840;28;20265;-76
2023/05/20 05:39:46;;;;;;;4.13;1.88;;;11.90;99.90;;;;;;5014481;28;20041;-77
2023/05/20 05:42:11;;;;;;;4.22;1.70;;;12.00;99.90;;;;;;5015267;28;20076;-76
2023/05/20 05:44:37;;;;;;;3.40;1.75;;;12.10;99.90;;;;;;5014993;28;20128;-76
2023/05/20 05:47:03;;;;;;;4.57;1.60;;;12.10;99.90;;;;;;5014747;28;20048;-75
2023/05/20 05:49:28;;;;;;;3.25;2.00;;;12.30;99.90;;;;;;5014638;28;20256;-75
2023/05/20 05:51:54;;;;;;;4.45;1.90;;;12.50;99.90;;;;;;5013506;28;20103;-76
2023/05/20 05:54:19;;;;;;;2.53;1.55;;;12.80;99.90;;;;;;5013031;28;20037;-75
2023/05/20 05:56:45;;;;;;;3.63;1.80;;;13.10;99.90;;;;;;5030158;28;20049;-76
2023/05/20 05:59:11;;;;;;;4.13;1.50;;;13.30;99.90;;;;;;5012617;28;20044;-76
2023/05/20 06:01:37;;;;;;;3.80;1.95;;;13.50;99.90;;;;;;5012737;28;20090;-76
2023/05/20 06:04:02;;;;;;;4.88;1.58;;;13.60;99.90;;;;;;5004606;28;20418;-75
2023/05/20 06:06:28;;;;;;;2.25;1.50;;;13.70;99.90;;;;;;5012634;28;20557;-75
2023/05/20 06:08:54;;;;;;;3.40;1.60;;;13.80;99.90;;;;;;5011902;28;20112;-75
2023/05/20 06:11:20;;;;;;;4.07;1.40;;;13.80;99.90;;;;;;5011190;28;20041;-75
2023/05/20 06:13:46;;;;;;;4.63;1.70;;;13.90;99.90;;;;;;5011629;28;20104;-75
2023/05/20 06:16:11;;;;;;;2.90;1.80;;;13.90;99.90;;;;;;5013276;28;20048;-77
2023/05/20 06:18:37;;;;;;;2.88;1.52;;;14.00;99.90;;;;;;5014168;28;20120;-75
2023/05/20 06:21:03;;;;;;;3.30;1.50;;;14.10;99.90;;;;;;5013981;28;20036;-76
2023/05/20 06:23:29;;;;;;;3.63;1.42;;;14.10;99.90;;;;;;5013881;28;20052;-75
2023/05/20 06:25:58;;;;;;;3.25;1.20;;;14.20;99.90;;;;;;5014161;28;20042;-76
2023/05/20 06:28:24;;;;;;;2.55;1.55;;;14.20;99.90;;;;;;4997388;28;20038;-76
2023/05/20 06:30:51;;;;;;;5.35;1.70;;;14.30;99.90;;;;;;5013855;28;20037;-74
2023/05/20 06:33:18;;;;;;;2.70;1.50;;;14.40;99.90;;;;;;5013586;28;20136;-76
2023/05/20 06:35:43;;;;;;;4.68;1.52;;;14.50;99.90;;;;;;5013461;28;20045;-73
2023/05/20 06:38:09;;;;;;;2.45;1.50;;;14.50;99.90;;;;;;5013276;28;20037;-77
2023/05/20 06:40:34;;;;;;;1.85;1.30;;;14.60;99.90;;;;;;5013642;28;20409;-77
2023/05/20 06:43:00;;;;;;;3.22;1.50;;;14.60;99.90;;;;;;4992652;28;20417;-77
2023/05/20 06:45:26;;;;;;;4.80;1.70;;;14.70;99.90;;;;;;5013250;28;20041;-77
2023/05/20 06:47:53;;;;;;;2.75;1.45;;;14.70;99.90;;;;;;5010254;28;20211;-74
2023/05/20 06:50:18;;;;;;;2.42;1.30;;;14.80;99.90;;;;;;5013206;28;20081;-78
2023/05/20 06:52:44;;;;;;;2.10;1.10;;;14.90;99.90;;;;;;5013696;28;20118;-77
2023/05/20 06:55:10;;;;;;;2.92;1.35;;;15.00;99.90;;;;;;5013861;28;20519;-76
2023/05/20 06:57:35;;;;;;;4.38;1.40;;;15.10;99.90;;;;;;5029156;28;20041;-75
2023/05/20 07:00:02;;;;;;;4.90;1.48;;;15.10;99.90;;;;;;5003078;28;20041;-77
2023/05/20 07:02:28;;;;;;;2.97;1.30;;;15.10;99.90;;;;;;5010767;28;20042;-77
2023/05/20 07:04:53;;;;;;;3.13;1.33;;;15.20;99.90;;;;;;5010972;28;20045;-75
2023/05/20 07:07:19;;;;;;;2.03;1.27;;;15.30;99.90;;;;;;5009571;28;20050;-77
2023/05/20 07:09:44;;;;;;;3.55;1.30;;;15.30;99.90;;;;;;5010930;28;20123;-75
2023/05/20 07:12:10;;;;;;;3.45;1.50;;;15.40;99.90;;;;;;5009942;28;20164;-75
2023/05/20 07:14:35;;;;;;;3.22;1.40;;;15.40;99.90;;;;;;5029757;28;20064;-78
2023/05/20 07:17:01;;;;;;;3.22;1.55;;;15.50;99.90;;;;;;5012878;28;20037;-77
2023/05/20 07:19:26;;;;;;;2.08;1.38;;;15.50;99.90;;;;;;5012507;28;20110;-76
2023/05/20 07:21:52;;;;;;;4.35;1.50;;;15.60;99.90;;;;;;5011517;28;20037;-77
2023/05/20 07:24:18;;;;;;;3.58;1.20;;;15.60;99.90;;;;;;5013054;28;20072;-76
2023/05/20 07:26:43;;;;;;;2.50;1.40;;;15.70;99.90;;;;;;5013032;28;20041;-78
2023/05/20 07:29:09;;;;;;;3.10;1.45;;;15.70;99.90;;;;;;5005989;28;20041;-78
2023/05/20 07:31:35;;;;;;;2.83;1.48;;;15.80;99.90;;;;;;5012707;28;20045;-78
2023/05/20 07:34:01;;;;;;;3.50;1.38;;;15.90;99.90;;;;;;5012386;28;20703;-75
2023/05/20 07:36:27;;;;;;;3.47;1.40;;;15.90;99.90;;;;;;5012930;28;20053;-79
2023/05/20 07:38:53;;;;;;;4.65;1.30;;;16.00;99.90;;;;;;5012803;28;20029;-75
2023/05/20 07:41:20;;;;;;;3.60;1.50;;;16.10;99.90;;;;;;5012695;28;20038;-77
2023/05/20 07:43:45;;;;;;;2.40;1.27;;;16.20;99.90;;;;;;5012781;28;20112;-76
2023/05/20 07:46:11;;;;;;;2.78;1.63;;;16.30;99.90;;;;;;5012616;28;20164;-75
2023/05/20 07:48:36;;;;;;;2.40;1.20;;;16.40;99.90;;;;;;5004992;28;20125;-77
2023/05/20 07:51:02;;;;;;;2.45;1.30;;;16.50;99.90;;;;;;5004854;28;20476;-76
2023/05/20 07:53:27;;;;;;;2.88;1.30;;;16.60;99.90;;;;;;4995171;28;20042;-77
2023/05/20 07:55:53;;;;;;;2.42;1.27;;;16.70;99.90;;;;;;5013699;28;20026;-76
2023/05/20 07:58:18;;;;;;;2.88;1.40;;;16.80;99.90;;;;;;5015829;28;20133;-76
2023/05/20 08:00:44;;;;;;;3.33;1.30;;;16.80;99.90;;;;;;5015801;28;20044;-75
2023/05/20 08:03:10;;;;;;;3.83;1.17;;;16.90;99.90;;;;;;5015600;28;20052;-76
2023/05/20 08:05:37;;;;;;;3.45;1.40;;;17.00;99.90;;;;;;5015998;28;20079;-74
2023/05/20 08:08:03;;;;;;;4.38;1.60;;;17.10;99.90;;;;;;5016407;28;20037;-76
2023/05/20 08:10:29;;;;;;;3.10;1.40;;;17.20;99.90;;;;;;4999950;28;20067;-76
2023/05/20 08:12:54;;;;;;;3.83;1.50;;;17.20;99.90;;;;;;5016279;28;20421;-73
2023/05/20 08:15:20;;;;;;;2.75;1.50;;;17.40;99.90;;;;;;5016381;28;20400;-76
2023/05/20 08:17:45;;;;;;;5.05;1.40;;;17.40;99.90;;;;;;5014374;28;20034;-76
2023/05/20 08:20:11;;;;;;;3.28;1.40;;;17.50;99.90;;;;;;5012954;28;20041;-76
2023/05/20 08:22:37;;;;;;;3.28;1.30;;;17.60;99.90;;;;;;5016334;28;20497;-76
2023/05/20 08:25:06;;;;;;;3.45;1.30;;;17.60;99.90;;;;;;4999825;28;20485;-76
2023/05/20 08:27:31;;;;;;;2.20;1.23;;;17.70;99.90;;;;;;5016072;28;20456;-75
2023/05/20 08:29:57;;;;;;;4.15;1.30;;;17.90;99.90;;;;;;5015911;28;20042;-75
2023/05/20 08:32:22;;;;;;;2.65;1.48;;;17.80;99.90;;;;;;5016057;28;20053;-74
2023/05/20 08:34:48;;;;;;;3.38;1.20;;;17.80;99.90;;;;;;5013646;28;20041;-76
2023/05/20 08:37:13;;;;;;;3.33;1.30;;;17.90;99.90;;;;;;5005888;28;20046;-76
2023/05/20 08:39:39;;;;;;;3.95;1.60;;;18.00;99.90;;;;;;5012020;28;20041;-74
2023/05/20 08:42:06;;;;;;;4.15;1.60;;;18.10;99.90;;;;;;5011901;28;20475;-75
2023/05/20 08:44:33;;;;;;;4.05;1.70;;;18.10;99.90;;;;;;5012313;28;20071;-74
2023/05/20 08:46:58;;;;;;;96.43;5.75;;;18.10;99.90;;;;;;5013362;28;20087;-75
2023/05/20 08:49:24;;;;;;;13.60;2.03;;;18.00;99.90;;;;;;5012829;28;20501;-76
2023/05/20 08:51:50;;;;;;;3.22;1.80;;;18.00;99.90;;;;;;5015657;28;20041;-75
2023/05/20 08:54:16;;;;;;;2.83;1.70;;;17.90;99.90;;;;;;5013507;28;20041;-73
2023/05/20 08:56:43;;;;;;;2.20;1.58;;;17.90;99.90;;;;;;5013534;28;20473;-75
2023/05/20 08:59:09;;;;;;;4.75;1.98;;;17.90;99.90;;;;;;5014020;28;20041;-73
2023/05/20 09:01:42;;;;;;;3.22;1.70;;;18.00;99.90;;;;;;5015359;28;20041;-75
2023/05/20 09:04:08;;;;;;;3.00;1.90;;;18.10;99.90;;;;;;5013302;28;20037;-74
2023/05/20 09:06:44;;;;;;;3.40;1.52;;;18.10;99.90;;;;;;5012506;28;20045;-75
2023/05/20 09:09:11;;;;;;;5.45;1.70;;;18.10;99.90;;;;;;5011801;28;20037;-74
2023/05/20 09:11:39;;;;;;;3.45;1.73;;;18.20;99.90;;;;;;5015401;28;20068;-75
2023/05/20 09:14:05;;;;;;;4.13;1.80;;;18.20;99.90;;;;;;5014470;28;20434;-74
2023/05/20 09:16:30;;;;;;;3.00;1.73;;;18.20;99.90;;;;;;5010945;28;20088;-75
2023/05/20 09:18:56;;;;;;;3.80;1.92;;;18.30;99.90;;;;;;5015215;28;20037;-75
2023/05/20 09:21:26;;;;;;;5.05;1.85;;;18.30;99.90;;;;;;5014757;28;20080;-72
2023/05/20 09:23:53;;;;;;;2.88;1.90;;;18.30;99.90;;;;;;5010226;28;20113;-74
2023/05/20 09:26:19;;;;;;;2.88;1.48;;;18.40;99.90;;;;;;5012867;28;20045;-76
2023/05/20 09:28:45;;;;;;;5.63;1.85;;;18.40;99.90;;;;;;5006514;28;20397;-73
2023/05/20 09:31:13;;;;;;;4.22;2.00;;;18.50;99.90;;;;;;5010412;28;20215;-74
2023/05/20 09:33:39;;;;;;;3.65;1.70;;;18.50;99.90;;;;;;5013710;28;20033;-76
2023/05/20 09:36:09;;;;;;;3.35;1.60;;;18.60;99.90;;;;;;5015285;28;20045;-74
2023/05/20 09:38:39;;;;;;;4.78;1.98;;;18.60;99.90;;;;;;5014512;28;20030;-74
2023/05/20 09:41:12;;;;;;;3.30;1.80;;;18.60;99.90;;;;;;5014590;28;20042;-74
2023/05/20 09:43:41;;;;;;;5.85;1.60;;;18.60;99.90;;;;;;5018979;28;20039;-73
2023/05/20 09:46:07;;;;;;;3.58;1.83;;;18.60;99.90;;;;;;5005136;28;20045;-75
2023/05/20 09:48:36;;;;;;;9.02;1.90;;;18.70;99.90;;;;;;5014521;28;20670;-75
2023/05/20 09:51:04;;;;;;;2.97;1.83;;;18.70;99.90;;;;;;5014975;28;20041;-74
2023/05/20 09:53:29;;;;;;;2.88;1.73;;;18.70;99.90;;;;;;4992726;28;20135;-72
2023/05/20 09:55:56;;;;;;;4.65;2.00;;;18.90;99.90;;;;;;5017257;28;20041;-74
2023/05/20 09:58:24;;;;;;;4.32;1.90;;;18.80;99.90;;;;;;5033568;28;20091;-78
2023/05/20 10:00:51;;;;;;;2.50;1.63;;;18.90;99.90;;;;;;5001180;28;20029;-75
2023/05/20 10:03:27;;;;;;;3.22;2.03;;;19.00;99.90;;;;;;5014641;28;20096;-75
2023/05/20 10:06:08;;;;;;;3.00;1.80;;;19.10;99.90;;;;;;5013857;28;20464;-76
2023/05/20 10:08:42;;;;;;;4.32;1.90;;;19.10;99.90;;;;;;5026445;28;20056;-74
2023/05/20 10:11:33;;;;;;;4.35;1.92;;;19.10;99.90;;;;;;5024384;28;20048;-75
2023/05/20 10:14:20;;;;;;;5.60;2.10;;;19.00;99.90;;;;;;5021585;28;20045;-75
2023/05/20 10:17:12;;;;;;;6.35;2.05;;;19.10;99.90;;;;;;5014190;28;20048;-75
2023/05/20 10:19:38;;;;;;;2.97;1.88;;;19.10;99.90;;;;;;5031482;28;20048;-75
2023/05/20 10:22:05;;;;;;;3.83;1.75;;;19.20;99.90;;;;;;5013826;28;20486;-76
2023/05/20 10:24:34;;;;;;;4.18;1.80;;;19.40;99.90;;;;;;5006903;28;20064;-76
2023/05/20 10:27:02;;;;;;;3.80;1.80;;;19.60;99.90;;;;;;5013926;28;20033;-74
2023/05/20 10:29:28;;;;;;;3.40;1.90;;;19.90;99.90;;;;;;5014188;28;20038;-74
2023/05/20 10:31:54;;;;;;;6.00;2.00;;;20.00;99.90;;;;;;5014261;28;20041;-74
2023/05/20 10:34:21;;;;;;;2.85;2.00;;;20.20;99.90;;;;;;5013976;28;20122;-75
2023/05/20 10:36:53;;;;;;;4.03;1.92;;;20.20;99.90;;;;;;5014051;28;20044;-75
2023/05/20 10:39:28;;;;;;;4.72;1.85;;;20.40;99.90;;;;;;5013602;28;20134;-73
2023/05/20 10:42:08;;;;;;;4.28;1.50;;;20.60;99.90;;;;;;5013029;28;20402;-75
2023/05/20 10:44:44;;;;;;;3.58;1.80;;;20.90;99.90;;;;;;5013396;28;20496;-75
2023/05/20 10:47:10;;;;;;;4.95;1.80;;;21.00;99.90;;;;;;5003681;28;20037;-75
2023/05/20 10:49:40;;;;;;;5.50;2.03;;;21.10;99.90;;;;;;5013515;28;20045;-74
2023/05/20 10:52:09;;;;;;;3.13;1.63;;;21.20;99.90;;;;;;5020540;28;20060;-73
2023/05/20 10:54:36;;;;;;;3.50;1.85;;;21.30;99.90;;;;;;5002632;28;20041;-75
2023/05/20 10:57:06;;;;;;;4.93;1.75;;;21.20;99.90;;;;;;5004262;28;20060;-73
2023/05/20 10:59:32;;;;;;;4.50;1.83;;;21.10;99.90;;;;;;5013754;28;20113;-75
2023/05/20 11:01:59;;;;;;;4.00;1.90;;;21.00;99.90;;;;;;5013839;28;20045;-74
2023/05/20 11:04:27;;;;;;;4.13;1.92;;;21.10;99.90;;;;;;5008968;28;20064;-74
2023/05/20 11:06:54;;;;;;;3.30;1.73;;;21.20;99.90;;;;;;5013925;28;20029;-74
2023/05/20 11:09:20;;;;;;;5.40;2.00;;;21.30;99.90;;;;;;5012870;28;20049;-74
2023/05/20 11:11:46;;;;;;;3.65;2.10;;;21.50;99.90;;;;;;5018848;28;20136;-75
2023/05/20 11:14:13;;;;;;;4.32;1.60;;;21.70;99.90;;;;;;5011761;28;20117;-74
2023/05/20 11:16:40;;;;;;;8.55;1.85;;;21.90;99.90;;;;;;5005939;28;20497;-74
2023/05/20 11:19:15;;;;;;;4.97;2.10;;;21.70;99.90;;;;;;5030791;28;20044;-73
2023/05/20 11:21:45;;;;;;;4.25;1.70;;;21.50;99.90;;;;;;5012669;28;20378;-73
2023/05/20 11:24:11;;;;;;;2.30;1.40;;;21.60;99.90;;;;;;5016365;28;20042;-74
2023/05/20 11:26:37;;;;;;;4.57;2.10;;;21.80;99.90;;;;;;5011033;28;20132;-74
2023/05/20 11:29:03;;;;;;;5.88;2.05;;;22.10;99.90;;;;;;5003742;28;20128;-74
2023/05/20 11:31:32;;;;;;;4.13;2.20;;;22.30;99.90;;;;;;5010202;28;20136;-75
2023/05/20 11:34:00;;;;;;;3.40;2.03;;;22.50;99.90;;;;;;4996035;28;20128;-77
2023/05/20 11:36:27;;;;;;;4.20;2.00;;;22.60;99.90;;;;;;5011661;28;20088;-74
2023/05/20 11:38:53;;;;;;;4.25;2.47;;;22.30;99.90;;;;;;5007904;28;20040;-74
2023/05/20 11:41:26;;;;;;;9.93;2.50;;;21.90;99.90;;;;;;5010681;28;20049;-74
2023/05/20 11:43:58;;;;;;;4.78;2.28;;;21.30;99.90;;;;;;5012331;28;20041;-72
2023/05/20 11:46:24;;;;;;;5.40;2.00;;;21.10;99.90;;;;;;5012075;28;20065;-73
2023/05/20 11:48:52;;;;;;;5.90;2.10;;;21.00;99.90;;;;;;4995372;28;20041;-73
2023/05/20 11:51:17;;;;;;;4.55;2.40;;;20.90;99.90;;;;;;5009609;28;20041;-74
2023/05/20 11:53:45;;;;;;;3.97;2.10;;;20.80;99.90;;;;;;5010945;28;20033;-73
2023/05/20 11:56:13;;;;;;;3.72;2.10;;;20.90;99.90;;;;;;5010189;28;20046;-73
2023/05/20 11:58:38;;;;;;;5.93;2.22;;;20.90;99.90;;;;;;5012565;28;20113;-74
2023/05/20 12:01:04;;;;;;;4.18;2.05;;;21.10;99.90;;;;;;5009798;28;20179;-75
2023/05/20 12:03:30;;;;;;;4.93;2.30;;;21.30;99.90;;;;;;5010974;28;20218;-73
2023/05/20 12:05:56;;;;;;;4.88;2.30;;;21.30;99.90;;;;;;5012763;28;20038;-74
2023/05/20 12:08:21;;;;;;;6.68;2.53;;;21.10;99.90;;;;;;5011493;28;20068;-75
2023/05/20 12:10:47;;;;;;;5.13;2.60;;;21.00;99.90;;;;;;5012490;28;20037;-74
2023/05/20 12:13:12;;;;;;;3.50;2.30;;;21.00;99.90;;;;;;5012359;28;20045;-73
2023/05/20 12:15:38;;;;;;;5.90;2.17;;;21.20;99.90;;;;;;5027721;28;20038;-73
2023/05/20 12:18:04;;;;;;;4.82;2.67;;;21.50;99.90;;;;;;5011913;28;20099;-74
2023/05/20 12:20:32;;;;;;;8.95;2.45;;;21.50;99.90;;;;;;5030127;28;20049;-74
2023/05/20 12:22:58;;;;;;;6.40;2.30;;;21.40;99.90;;;;;;5009401;28;20056;-74
2023/05/20 12:25:24;;;;;;;6.63;2.50;;;21.10;99.90;;;;;;4996009;28;20033;-74
2023/05/20 12:27:50;;;;;;;3.78;2.25;;;21.00;99.90;;;;;;4995115;28;20095;-74
2023/05/20 12:30:21;;;;;;;5.57;2.30;;;21.10;99.90;;;;;;5008925;28;20512;-74
2023/05/20 12:32:51;;;;;;;6.05;2.38;;;21.20;99.90;;;;;;5007392;28;20465;-76
2023/05/20 12:35:18;;;;;;;5.35;2.60;;;21.20;99.90;;;;;;5011784;28;20037;-74
2023/05/20 12:37:43;;;;;;;3.75;2.40;;;21.20;99.90;;;;;;5012310;28;20045;-73
2023/05/20 12:40:11;;;;;;;9.73;2.58;;;21.30;99.90;;;;;;4996059;28;20037;-73
2023/05/20 12:42:38;;;;;;;5.28;2.65;;;21.40;99.90;;;;;;5007310;28;20076;-75